createdAt,value
2022-09-09T00:01:27.227Z,1.65
2022-09-09T00:04:29.841Z,1.85
2022-09-09T00:07:44.752Z,1.67
2022-09-09T00:10:39.075Z,1.82
2022-09-09T00:13:36.038Z,1.75
2022-09-09T00:16:32.811Z,2.10
2022-09-09T00:19:25.536Z,1.77
2022-09-09T00:22:21.665Z,1.50
2022-09-09T00:25:15.885Z,2.00
2022-09-09T00:28:03.535Z,1.80
2022-09-09T00:30:51.099Z,2.02
2022-09-09T00:33:39.730Z,1.90
2022-09-09T00:36:30.018Z,2.22
2022-09-09T00:39:38.762Z,2.02
2022-09-09T00:42:28.337Z,1.85
2022-09-09T00:45:27.927Z,2.20
2022-09-09T00:48:17.111Z,2.17
2022-09-09T00:51:07.383Z,2.27
2022-09-09T00:54:17.441Z,1.90
2022-09-09T00:57:16.805Z,2.00
2022-09-09T01:00:20.777Z,2.08
2022-09-09T01:03:18.351Z,2.17
2022-09-09T01:06:14.949Z,2.25
2022-09-09T01:09:40.702Z,2.42
2022-09-09T01:12:37.553Z,2.10
2022-09-09T01:15:30.603Z,2.15
2022-09-09T01:18:21.446Z,2.25
2022-09-09T01:21:28.626Z,2.30
2022-09-09T01:24:22.475Z,2.37
2022-09-09T01:27:11.076Z,2.30
2022-09-09T01:30:00.587Z,2.33
2022-09-09T01:32:50.764Z,2.67
2022-09-09T01:35:59.983Z,2.40
2022-09-09T01:38:47.761Z,2.27
2022-09-09T01:41:35.275Z,2.60
2022-09-09T01:44:23.425Z,2.45
2022-09-09T01:47:11.228Z,2.60
2022-09-09T01:49:58.893Z,2.83
2022-09-09T01:52:48.759Z,2.40
2022-09-09T01:55:41.482Z,2.42
2022-09-09T01:58:53.154Z,2.60
2022-09-09T02:02:00.391Z,2.62
2022-09-09T02:04:50.801Z,2.15
2022-09-09T02:07:53.436Z,2.33
2022-09-09T02:10:44.667Z,2.30
2022-09-09T02:13:34.705Z,2.20
2022-09-09T02:16:31.024Z,2.25
2022-09-09T02:19:33.474Z,2.27
2022-09-09T02:22:23.643Z,2.20
2022-09-09T02:25:14.508Z,2.45
2022-09-09T02:28:02.648Z,2.40
2022-09-09T02:30:53.356Z,2.40
2022-09-09T02:33:43.444Z,2.42
2022-09-09T02:36:34.428Z,2.50
2022-09-09T02:39:21.698Z,2.35
2022-09-09T02:42:09.304Z,2.35
2022-09-09T02:44:56.701Z,2.52
2022-09-09T02:48:08.282Z,2.67
2022-09-09T02:51:08.010Z,2.15
2022-09-09T02:54:03.808Z,1.98
2022-09-09T02:56:57.190Z,2.10
2022-09-09T02:59:46.442Z,2.27
2022-09-09T03:02:33.898Z,1.98
2022-09-09T03:05:21.201Z,1.85
2022-09-09T03:08:08.447Z,2.10
2022-09-09T03:10:57.093Z,1.80
2022-09-09T03:13:44.543Z,2.00
2022-09-09T03:16:32.102Z,1.92
2022-09-09T03:19:19.471Z,1.77
2022-09-09T03:22:06.649Z,1.52
2022-09-09T03:24:54.120Z,1.90
2022-09-09T03:27:41.713Z,1.75
2022-09-09T03:30:29.988Z,2.35
2022-09-09T03:33:17.191Z,1.85
2022-09-09T03:36:04.617Z,1.90
2022-09-09T03:38:51.805Z,1.90
2022-09-09T03:41:39.490Z,2.15
2022-09-09T03:44:26.900Z,1.77
2022-09-09T03:47:14.386Z,2.22
2022-09-09T03:50:02.012Z,2.00
2022-09-09T03:52:49.407Z,2.05
2022-09-09T03:55:36.740Z,2.40
2022-09-09T03:58:25.256Z,2.05
2022-09-09T04:01:14.953Z,2.20
2022-09-09T04:04:03.257Z,2.42
2022-09-09T04:06:51.756Z,2.25
2022-09-09T04:09:38.922Z,2.02
2022-09-09T04:12:26.403Z,2.58
2022-09-09T04:15:13.625Z,2.15
2022-09-09T04:18:01.585Z,2.17
2022-09-09T04:20:53.354Z,2.40
2022-09-09T04:23:40.731Z,2.50
2022-09-09T04:26:27.988Z,2.35
2022-09-09T04:29:15.478Z,2.60
2022-09-09T04:32:03.007Z,2.17
2022-09-09T04:34:50.327Z,2.50
2022-09-09T04:37:37.705Z,2.50
2022-09-09T04:40:25.888Z,2.27
2022-09-09T04:43:14.569Z,2.62
2022-09-09T04:46:02.279Z,2.65
2022-09-09T04:48:50.919Z,3.10
2022-09-09T04:51:38.021Z,2.05
2022-09-09T04:54:25.959Z,2.42
2022-09-09T04:57:18.470Z,2.20
2022-09-09T05:00:03.423Z,2.80
2022-09-09T05:02:50.858Z,2.20
2022-09-09T05:05:38.364Z,2.70
2022-09-09T05:08:25.831Z,2.35
2022-09-09T05:11:18.003Z,2.52
2022-09-09T05:14:05.935Z,2.50
2022-09-09T05:16:53.244Z,2.10
2022-09-09T05:19:40.667Z,2.30
2022-09-09T05:22:29.166Z,2.45
2022-09-09T05:25:16.688Z,2.35
2022-09-09T05:28:04.265Z,2.40
2022-09-09T05:31:04.899Z,2.22
2022-09-09T05:33:52.437Z,2.22
2022-09-09T05:36:40.281Z,2.12
2022-09-09T05:39:27.840Z,2.60
2022-09-09T05:42:15.954Z,2.30
2022-09-09T05:45:03.591Z,2.10
2022-09-09T05:47:55.203Z,2.50
2022-09-09T05:50:43.592Z,2.17
2022-09-09T05:53:38.764Z,2.10
2022-09-09T05:56:28.213Z,2.40
2022-09-09T05:59:15.816Z,2.55
2022-09-09T06:02:03.160Z,2.60
2022-09-09T06:04:50.532Z,2.10
2022-09-09T06:07:38.655Z,2.40
2022-09-09T06:10:26.757Z,2.47
2022-09-09T06:13:14.122Z,2.25
2022-09-09T06:16:01.657Z,2.30
2022-09-09T06:18:49.860Z,2.20
2022-09-09T06:21:38.718Z,2.40
2022-09-09T06:24:25.744Z,2.47
2022-09-09T06:27:14.526Z,2.60
2022-09-09T06:30:01.791Z,2.72
2022-09-09T06:32:48.709Z,2.52
2022-09-09T06:35:35.943Z,2.20
2022-09-09T06:38:23.761Z,2.67
2022-09-09T06:41:13.290Z,3.08
2022-09-09T06:44:00.342Z,3.00
2022-09-09T06:46:48.947Z,2.30
2022-09-09T06:49:37.598Z,2.90
2022-09-09T06:52:25.873Z,2.40
2022-09-09T06:55:13.956Z,2.40
2022-09-09T06:58:01.437Z,2.60
2022-09-09T07:00:49.088Z,2.33
2022-09-09T07:03:36.495Z,2.17
2022-09-09T07:06:30.060Z,1.90
2022-09-09T07:09:18.036Z,1.92
2022-09-09T07:12:07.190Z,2.05
2022-09-09T07:14:54.607Z,1.87
2022-09-09T07:17:42.089Z,1.80
2022-09-09T07:20:29.143Z,1.87
2022-09-09T07:23:16.148Z,1.80
2022-09-09T07:26:04.582Z,2.10
2022-09-09T07:28:51.716Z,1.55
2022-09-09T07:31:41.128Z,1.55
2022-09-09T07:34:28.079Z,1.52
2022-09-09T07:37:15.861Z,1.52
2022-09-09T07:40:04.692Z,1.40
2022-09-09T07:42:51.994Z,1.50
2022-09-09T07:45:39.268Z,1.70
2022-09-09T07:48:26.827Z,1.57
2022-09-09T07:51:18.533Z,1.65
2022-09-09T07:54:10.175Z,1.60
2022-09-09T07:56:57.640Z,1.60
2022-09-09T07:59:45.901Z,1.70
2022-09-09T08:02:32.898Z,1.60
2022-09-09T08:05:19.956Z,1.75
2022-09-09T08:08:07.072Z,1.60
2022-09-09T08:10:54.405Z,1.70
2022-09-09T08:13:42.178Z,1.45
2022-09-09T08:16:32.335Z,1.42
2022-09-09T08:19:19.472Z,1.30
2022-09-09T08:22:06.537Z,1.45
2022-09-09T08:24:54.217Z,1.50
2022-09-09T08:27:41.525Z,1.62
2022-09-09T08:30:29.622Z,1.60
2022-09-09T08:33:16.656Z,1.65
2022-09-09T08:36:04.076Z,1.52
2022-09-09T08:38:56.603Z,2.08
2022-09-09T08:42:00.526Z,1.92
2022-09-09T08:45:02.199Z,1.98
2022-09-09T08:48:01.435Z,2.20
2022-09-09T08:50:51.069Z,1.95
2022-09-09T08:53:44.306Z,1.72
2022-09-09T08:56:34.746Z,2.45
2022-09-09T08:59:22.223Z,2.00
2022-09-09T09:02:21.045Z,1.85
2022-09-09T09:05:11.125Z,1.98
2022-09-09T09:08:16.201Z,2.40
2022-09-09T09:11:03.831Z,1.95
2022-09-09T09:13:59.841Z,2.00
2022-09-09T09:16:59.164Z,2.30
2022-09-09T09:19:47.671Z,1.92
2022-09-09T09:22:41.272Z,1.70
2022-09-09T09:25:37.788Z,2.33
2022-09-09T09:28:28.460Z,2.30
2022-09-09T09:31:15.974Z,2.12
2022-09-09T09:34:03.404Z,2.22
2022-09-09T09:37:05.145Z,2.05
2022-09-09T09:40:07.769Z,2.00
2022-09-09T09:42:53.427Z,1.70
2022-09-09T09:46:06.796Z,2.15
2022-09-09T09:48:37.376Z,2.08
2022-09-09T09:51:26.082Z,2.35
2022-09-09T09:54:23.947Z,2.87
2022-09-09T09:57:19.112Z,2.67
2022-09-09T10:00:18.853Z,2.52
2022-09-09T10:03:15.693Z,2.60
2022-09-09T10:06:02.824Z,2.90
2022-09-09T10:08:50.041Z,4.75
2022-09-09T10:11:43.564Z,4.15
2022-09-09T10:14:59.784Z,4.33
2022-09-09T10:18:10.313Z,4.15
2022-09-09T10:21:08.740Z,4.58
2022-09-09T10:24:04.402Z,4.28
2022-09-09T10:26:59.055Z,4.58
2022-09-09T10:30:05.858Z,4.50
2022-09-09T10:33:14.525Z,3.95
2022-09-09T10:36:13.517Z,4.95
2022-09-09T10:39:06.278Z,5.00
2022-09-09T10:42:09.484Z,5.20
2022-09-09T10:45:02.382Z,4.17
2022-09-09T10:47:52.700Z,5.22
2022-09-09T10:51:05.124Z,3.90
2022-09-09T10:53:49.167Z,3.83
2022-09-09T10:56:37.300Z,3.92
2022-09-09T10:59:27.612Z,3.85
2022-09-09T11:02:26.761Z,2.50
2022-09-09T11:05:25.771Z,2.67
2022-09-09T11:08:16.446Z,2.30
2022-09-09T11:11:24.790Z,1.90
2022-09-09T11:14:15.214Z,2.12
2022-09-09T11:17:14.148Z,2.15
2022-09-09T11:20:01.669Z,1.98
2022-09-09T11:22:51.865Z,2.20
2022-09-09T11:25:44.401Z,1.60
2022-09-09T11:28:49.552Z,1.20
2022-09-09T11:31:48.341Z,0.90
2022-09-09T11:34:38.384Z,0.90
2022-09-09T11:38:04.324Z,0.75
2022-09-09T11:40:57.299Z,0.82
2022-09-09T11:43:47.227Z,0.60
2022-09-09T11:46:39.833Z,1.10
2022-09-09T11:49:33.180Z,1.05
2022-09-09T11:52:45.264Z,1.07
2022-09-09T11:55:34.390Z,1.10
2022-09-09T11:58:21.819Z,1.42
2022-09-09T12:01:17.147Z,1.27
2022-09-09T12:04:13.098Z,1.20
2022-09-09T12:07:25.793Z,1.05
2022-09-09T12:10:38.555Z,0.93
2022-09-09T12:13:28.324Z,1.00
2022-09-09T12:16:36.445Z,1.10
2022-09-09T12:19:26.926Z,1.10
2022-09-09T12:22:25.914Z,1.20
2022-09-09T12:25:41.630Z,1.35
2022-09-09T12:28:41.784Z,1.00
2022-09-09T12:32:00.610Z,1.00
2022-09-09T12:35:08.338Z,1.02
2022-09-09T12:40:48.098Z,0.80
2022-09-09T12:43:38.445Z,1.05
2022-09-09T12:46:29.001Z,0.68
2022-09-09T12:49:42.214Z,0.68
2022-09-09T12:52:33.540Z,0.50
2022-09-09T12:55:25.418Z,0.60
2022-09-09T12:58:15.549Z,0.68
2022-09-09T13:01:06.125Z,0.72
2022-09-09T13:03:54.023Z,1.00
2022-09-09T13:06:41.318Z,0.72
2022-09-09T13:09:28.644Z,0.82
2022-09-09T13:12:18.616Z,0.90
2022-09-09T13:15:06.322Z,1.05
2022-09-09T13:17:56.980Z,1.32
2022-09-09T13:20:49.064Z,1.07
2022-09-09T13:23:38.405Z,0.78
2022-09-09T13:26:28.236Z,0.70
2022-09-09T13:29:22.455Z,1.05
2022-09-09T13:32:15.715Z,0.70
2022-09-09T13:35:04.060Z,0.80
2022-09-09T13:37:51.384Z,0.70
2022-09-09T13:40:40.044Z,0.80
2022-09-09T13:43:28.711Z,0.80
2022-09-09T13:46:38.290Z,0.80
2022-09-09T13:49:27.577Z,0.50
2022-09-09T13:52:18.082Z,0.95
2022-09-09T13:55:05.517Z,0.82
2022-09-09T13:58:01.615Z,0.57
2022-09-09T14:00:49.063Z,0.60
2022-09-09T14:03:36.431Z,0.90
2022-09-09T14:06:24.286Z,0.50
2022-09-09T14:09:16.760Z,0.70
2022-09-09T14:12:04.506Z,0.75
2022-09-09T14:14:51.725Z,0.42
2022-09-09T14:17:40.242Z,0.60
2022-09-09T14:20:27.666Z,0.78
2022-09-09T14:23:16.405Z,0.47
2022-09-09T14:26:03.689Z,0.70
2022-09-09T14:28:55.333Z,0.80
2022-09-09T14:31:41.604Z,0.80
2022-09-09T14:34:29.078Z,0.70
2022-09-09T14:37:15.896Z,0.80
2022-09-09T14:40:03.384Z,0.55
2022-09-09T14:42:50.768Z,0.98
2022-09-09T14:45:38.646Z,0.60
2022-09-09T14:48:26.066Z,0.90
2022-09-09T14:51:16.586Z,0.80
2022-09-09T14:54:04.046Z,1.52
2022-09-09T14:56:51.463Z,0.98
2022-09-09T14:59:38.753Z,0.65
2022-09-09T15:02:26.338Z,1.02
2022-09-09T15:05:13.693Z,0.60
2022-09-09T15:08:00.864Z,0.80
2022-09-09T15:10:48.202Z,0.60
2022-09-09T15:13:38.168Z,0.88
2022-09-09T15:16:28.814Z,0.85
2022-09-09T15:19:15.925Z,0.90
2022-09-09T15:22:03.190Z,0.78
2022-09-09T15:24:50.501Z,0.90
2022-09-09T15:27:37.551Z,0.85
2022-09-09T15:30:24.954Z,0.65
2022-09-09T15:33:13.082Z,0.60
2022-09-09T15:36:00.119Z,0.68
2022-09-09T15:38:47.689Z,0.53
2022-09-09T15:41:36.486Z,0.80
2022-09-09T15:44:25.289Z,0.70
2022-09-09T15:47:14.262Z,1.05
2022-09-09T15:50:01.474Z,0.70
2022-09-09T15:52:48.567Z,0.78
2022-09-09T15:55:35.631Z,1.10
2022-09-09T15:58:22.609Z,0.70
2022-09-09T16:01:11.115Z,0.80
2022-09-09T16:03:59.821Z,1.07
2022-09-09T16:06:47.759Z,0.60
2022-09-09T16:09:36.077Z,0.80
2022-09-09T16:12:23.374Z,0.75
2022-09-09T16:15:11.224Z,0.70
2022-09-09T16:17:59.175Z,0.78
2022-09-09T16:20:50.934Z,0.55
2022-09-09T16:23:38.454Z,0.70
2022-09-09T16:26:25.325Z,0.70
2022-09-09T16:29:12.843Z,0.82
2022-09-09T16:32:03.957Z,0.90
2022-09-09T16:34:49.611Z,0.90
2022-09-09T16:37:37.116Z,1.02
2022-09-09T16:40:24.529Z,0.72
2022-09-09T16:43:13.808Z,0.65
2022-09-09T16:46:02.823Z,0.80
2022-09-09T16:48:50.349Z,0.82
2022-09-09T16:51:40.232Z,0.60
2022-09-09T16:54:27.953Z,0.90
2022-09-09T16:57:15.252Z,0.70
2022-09-09T17:00:04.394Z,0.80
2022-09-09T17:02:51.501Z,0.70
2022-09-09T17:06:00.956Z,0.70
2022-09-09T17:08:49.892Z,0.80
2022-09-09T17:11:38.389Z,0.68
2022-09-09T17:14:25.422Z,0.80
2022-09-09T17:17:30.619Z,0.53
2022-09-09T17:20:04.171Z,0.70
2022-09-09T17:22:51.729Z,0.62
2022-09-09T17:25:39.694Z,0.88
2022-09-09T17:28:28.353Z,0.70
2022-09-09T17:31:18.641Z,0.80
2022-09-09T17:34:05.974Z,0.82
2022-09-09T17:36:53.506Z,1.10
2022-09-09T17:39:40.871Z,0.70
2022-09-09T17:42:28.454Z,0.70
2022-09-09T17:45:16.220Z,0.68
2022-09-09T17:48:04.975Z,0.70
2022-09-09T17:50:55.251Z,0.68
2022-09-09T17:53:47.955Z,0.65
2022-09-09T17:56:36.105Z,0.50
2022-09-09T17:59:25.227Z,0.53
2022-09-09T18:02:13.886Z,0.70
2022-09-09T18:05:02.302Z,0.70
2022-09-09T18:07:49.924Z,0.78
2022-09-09T18:10:37.248Z,0.93
2022-09-09T18:13:24.604Z,0.70
2022-09-09T18:16:12.281Z,0.70
2022-09-09T18:19:00.732Z,0.78
2022-09-09T18:21:49.401Z,0.60
2022-09-09T18:24:36.739Z,0.90
2022-09-09T18:27:24.325Z,0.50
2022-09-09T18:30:11.982Z,0.60
2022-09-09T18:32:59.608Z,0.68
2022-09-09T18:35:48.327Z,0.85
2022-09-09T18:38:36.134Z,0.50
2022-09-09T18:41:25.934Z,0.50
2022-09-09T18:44:17.852Z,0.62
2022-09-09T18:47:04.861Z,0.88
2022-09-09T18:49:55.361Z,1.00
2022-09-09T18:52:42.433Z,0.80
2022-09-09T18:55:29.596Z,0.98
2022-09-09T18:58:19.277Z,1.32
2022-09-09T19:01:08.739Z,1.57
2022-09-09T19:03:59.679Z,0.90
2022-09-09T19:06:48.473Z,1.02
2022-09-09T19:09:36.466Z,1.10
2022-09-09T19:12:25.265Z,0.80
2022-09-09T19:15:12.395Z,1.00
2022-09-09T19:18:03.992Z,0.90
2022-09-09T19:20:48.037Z,1.05
2022-09-09T19:23:37.037Z,1.10
2022-09-09T19:26:24.511Z,0.80
2022-09-09T19:29:23.569Z,0.75
2022-09-09T19:35:01.845Z,0.80
2022-09-09T19:37:49.002Z,0.60
2022-09-09T19:40:37.086Z,0.80
2022-09-09T19:43:31.570Z,0.93
2022-09-09T19:46:18.213Z,0.60
2022-09-09T19:49:06.699Z,0.72
2022-09-09T19:51:56.554Z,0.60
2022-09-09T19:54:47.501Z,0.70
2022-09-09T19:57:37.577Z,0.78
2022-09-09T20:00:26.527Z,0.60
2022-09-09T20:03:19.452Z,0.75
2022-09-09T20:06:02.816Z,0.65
2022-09-09T20:08:51.608Z,0.70
2022-09-09T20:11:42.332Z,0.60
2022-09-09T20:14:29.577Z,0.70
2022-09-09T20:17:16.991Z,0.85
2022-09-09T20:20:04.180Z,0.50
2022-09-09T20:22:51.448Z,0.70
2022-09-09T20:25:38.401Z,0.53
2022-09-09T20:28:25.826Z,0.70
2022-09-09T20:31:18.034Z,0.70
2022-09-09T20:34:06.184Z,0.80
2022-09-09T20:36:54.617Z,0.88
2022-09-09T20:39:42.040Z,0.80
2022-09-09T20:42:32.016Z,0.93
2022-09-09T20:45:19.344Z,0.78
2022-09-09T20:48:09.437Z,0.70
2022-09-09T20:50:56.547Z,1.00
2022-09-09T20:53:44.659Z,1.10
2022-09-09T20:56:36.684Z,0.72
2022-09-09T20:59:46.352Z,0.82
2022-09-09T21:02:33.658Z,0.80
2022-09-09T21:05:24.163Z,0.70
2022-09-09T21:08:09.763Z,1.10
2022-09-09T21:10:57.765Z,0.70
2022-09-09T21:13:45.827Z,1.00
2022-09-09T21:16:33.225Z,0.98
2022-09-09T21:19:20.510Z,0.90
2022-09-09T21:22:09.677Z,0.93
2022-09-09T21:24:57.496Z,0.78
2022-09-09T21:27:44.683Z,0.95
2022-09-09T21:30:40.595Z,1.10
2022-09-09T21:33:24.905Z,0.85
2022-09-09T21:36:13.713Z,0.95
2022-09-09T21:39:01.082Z,0.90
2022-09-09T21:41:48.836Z,1.10
2022-09-09T21:44:36.415Z,1.17
2022-09-09T21:47:23.740Z,0.88
2022-09-09T21:50:11.211Z,0.80
2022-09-09T21:53:00.163Z,1.00
2022-09-09T21:55:49.138Z,0.98
2022-09-09T21:58:36.788Z,1.00
2022-09-09T22:01:24.749Z,1.05
2022-09-09T22:04:11.893Z,0.80
2022-09-09T22:06:59.268Z,0.85
2022-09-09T22:09:46.752Z,0.80
2022-09-09T22:12:34.961Z,1.27
2022-09-09T22:15:22.448Z,0.65
2022-09-09T22:18:09.906Z,0.70
2022-09-09T22:20:57.420Z,0.80
2022-09-09T22:23:46.439Z,0.85
2022-09-09T22:26:36.361Z,0.60
2022-09-09T22:29:23.897Z,0.65
2022-09-09T22:32:12.009Z,0.65
2022-09-09T22:34:59.135Z,0.80
2022-09-09T22:37:46.884Z,0.70
2022-09-09T22:40:37.763Z,0.70
2022-09-09T22:43:25.247Z,1.00
2022-09-09T22:46:13.611Z,0.70
2022-09-09T22:49:03.673Z,0.93
2022-09-09T22:51:51.229Z,1.30
2022-09-09T22:54:39.478Z,1.47
2022-09-09T22:57:27.387Z,1.32
2022-09-09T23:00:15.273Z,1.10
2022-09-09T23:03:02.824Z,1.70
2022-09-09T23:05:58.542Z,1.60
2022-09-09T23:08:46.519Z,2.40
2022-09-09T23:11:36.898Z,3.52
2022-09-09T23:14:24.017Z,3.15
2022-09-09T23:17:13.236Z,3.20
2022-09-09T23:20:00.732Z,3.33
2022-09-09T23:22:48.231Z,2.67
2022-09-09T23:25:39.080Z,3.02
2022-09-09T23:28:26.680Z,3.12
2022-09-09T23:31:16.884Z,2.87
2022-09-09T23:34:04.670Z,3.12
2022-09-09T23:36:53.436Z,3.65
2022-09-09T23:39:41.597Z,3.40
2022-09-09T23:42:30.524Z,3.35
2022-09-09T23:45:18.454Z,3.47
2022-09-09T23:48:05.597Z,3.35
2022-09-09T23:50:52.944Z,3.40
2022-09-09T23:53:42.313Z,3.10
2022-09-09T23:56:32.392Z,3.30
2022-09-09T23:59:19.612Z,3.37
